Time;durP1;ratioP1;P1;durP2;ratioP2;P2;SDS_P1;SDS_P2;PMS_P1;PMS_P2;Temp;Humidity;BMP_temperature;BMP_pressure;BME280_temperature;BME280_humidity;BME280_pressure;Samples;Min_cycle;Max_cycle;Signal;HPM_P1;HPM_P2
2021/05/16 00:00:35;;;;;;;10.60;5.95;;;10.50;99.90;;;;;;5125861;27;20041;-80
2021/05/16 00:03:01;;;;;;;6.32;5.10;;;10.50;99.90;;;;;;5122771;27;20035;-79
2021/05/16 00:05:29;;;;;;;7.30;5.45;;;10.50;99.90;;;;;;5108142;27;20510;-81
2021/05/16 00:07:56;;;;;;;10.98;5.85;;;10.50;99.90;;;;;;5123239;27;20304;-81
2021/05/16 00:10:24;;;;;;;7.03;5.72;;;10.40;99.90;;;;;;5128060;27;21885;-82
2021/05/16 00:12:54;;;;;;;6.32;5.63;;;10.40;99.90;;;;;;5128386;27;20117;-79
2021/05/16 00:15:22;;;;;;;6.55;5.82;;;10.50;99.90;;;;;;5123531;27;20035;-80
2021/05/16 00:17:49;;;;;;;7.50;5.97;;;10.40;99.90;;;;;;5142564;27;20030;-82
2021/05/16 00:20:18;;;;;;;7.55;6.35;;;10.40;99.90;;;;;;5119295;27;20031;-81
2021/05/16 00:22:44;;;;;;;7.70;6.00;;;10.30;99.90;;;;;;5109573;27;20035;-80
2021/05/16 00:25:14;;;;;;;6.95;6.03;;;10.40;99.90;;;;;;5132136;27;20046;-82
2021/05/16 00:27:42;;;;;;;8.88;6.30;;;10.30;99.90;;;;;;5133219;27;20033;-79
2021/05/16 00:30:12;;;;;;;9.20;6.28;;;10.30;99.90;;;;;;5133039;27;20144;-80
2021/05/16 00:32:37;;;;;;;8.68;6.72;;;10.40;99.90;;;;;;5130917;27;20035;-78
2021/05/16 00:35:06;;;;;;;10.25;6.78;;;10.40;99.90;;;;;;5127951;27;20091;-79
2021/05/16 00:37:31;;;;;;;10.73;6.68;;;10.40;99.90;;;;;;5127597;27;20038;-81
2021/05/16 00:39:57;;;;;;;8.07;7.13;;;10.40;99.90;;;;;;5127406;27;20516;-80
2021/05/16 00:42:24;;;;;;;9.13;6.63;;;10.40;99.90;;;;;;5130195;27;20035;-80
2021/05/16 00:45:07;;;;;;;8.40;7.10;;;10.40;99.90;;;;;;5150538;27;20030;-79
2021/05/16 00:47:33;;;;;;;9.55;7.50;;;10.30;99.90;;;;;;5122755;27;20034;-82
2021/05/16 00:50:02;;;;;;;8.50;7.57;;;10.30;99.90;;;;;;5146685;27;20031;-82
2021/05/16 00:52:29;;;;;;;9.23;7.75;;;10.40;99.90;;;;;;5109780;27;20085;-79
2021/05/16 00:54:55;;;;;;;11.75;7.30;;;10.40;99.90;;;;;;5151654;27;20031;-79
2021/05/16 00:57:22;;;;;;;8.82;7.93;;;10.40;99.90;;;;;;5126409;27;20510;-79
2021/05/16 00:59:47;;;;;;;9.23;7.32;;;10.40;99.90;;;;;;5129075;27;20036;-81
2021/05/16 01:02:13;;;;;;;9.52;7.50;;;10.40;99.90;;;;;;5145533;27;20027;-79
2021/05/16 01:04:43;;;;;;;9.82;8.05;;;10.50;99.90;;;;;;5121207;27;20051;-82
2021/05/16 01:07:09;;;;;;;13.07;9.02;;;10.40;99.90;;;;;;5131761;27;20491;-80
2021/05/16 01:09:36;;;;;;;10.23;8.05;;;10.50;99.90;;;;;;5126515;27;20041;-79
2021/05/16 01:12:04;;;;;;;12.50;8.13;;;10.40;99.90;;;;;;5106082;27;20078;-82
2021/05/16 01:14:33;;;;;;;8.65;7.47;;;10.40;99.90;;;;;;5127226;27;20050;-80
2021/05/16 01:17:00;;;;;;;9.05;8.00;;;10.40;99.90;;;;;;5131769;27;20058;-79
2021/05/16 01:19:29;;;;;;;10.43;7.47;;;10.30;99.90;;;;;;5126054;27;20083;-79
2021/05/16 01:21:56;;;;;;;10.73;8.02;;;10.40;99.90;;;;;;5147471;27;20056;-81
2021/05/16 01:24:24;;;;;;;11.05;9.43;;;10.30;99.90;;;;;;5125618;27;20063;-80
2021/05/16 01:26:51;;;;;;;8.90;8.00;;;10.30;99.90;;;;;;5124204;27;20142;-80
2021/05/16 01:29:18;;;;;;;11.02;9.45;;;10.30;99.90;;;;;;5114928;27;20051;-81
2021/05/16 01:31:45;;;;;;;12.32;9.20;;;10.30;99.90;;;;;;5107333;27;20073;-80
2021/05/16 01:34:11;;;;;;;12.27;9.07;;;10.30;99.90;;;;;;5110933;27;20042;-79
2021/05/16 01:36:38;;;;;;;10.77;9.55;;;10.30;99.90;;;;;;5123948;27;20039;-80
2021/05/16 01:39:08;;;;;;;12.45;9.77;;;10.30;99.90;;;;;;5125600;27;20043;-79
2021/05/16 01:41:34;;;;;;;11.57;9.88;;;10.30;99.90;;;;;;5125500;27;20027;-82
2021/05/16 01:44:01;;;;;;;13.45;10.13;;;10.20;99.90;;;;;;5120816;27;20042;-80
2021/05/16 01:46:27;;;;;;;11.70;10.13;;;10.20;99.90;;;;;;5126798;27;20102;-81
2021/05/16 01:48:52;;;;;;;10.95;9.75;;;10.20;99.90;;;;;;5123876;27;20028;-81
2021/05/16 01:51:19;;;;;;;13.32;10.77;;;10.30;99.90;;;;;;5124591;27;20130;-80
2021/05/16 01:53:48;;;;;;;13.65;10.40;;;10.20;99.90;;;;;;5121249;27;20027;-80
2021/05/16 01:56:29;;;;;;;13.02;10.00;;;10.20;99.90;;;;;;5103645;27;20069;-81
2021/05/16 01:58:57;;;;;;;13.65;10.82;;;10.20;99.90;;;;;;5110835;27;20554;-80
2021/05/16 02:01:23;;;;;;;12.80;10.52;;;10.20;99.90;;;;;;5121728;27;20471;-79
2021/05/16 02:03:50;;;;;;;14.07;11.35;;;10.20;99.90;;;;;;5106425;27;20077;-80
2021/05/16 02:06:17;;;;;;;14.63;12.05;;;10.20;99.90;;;;;;5102105;27;20491;-82
2021/05/16 02:08:45;;;;;;;14.75;12.63;;;10.10;99.90;;;;;;5125106;27;20054;-80
2021/05/16 02:11:11;;;;;;;15.05;12.90;;;10.20;99.90;;;;;;5126157;27;20054;-80
2021/05/16 02:13:39;;;;;;;13.73;12.27;;;10.30;99.90;;;;;;5104063;27;20250;-82
2021/05/16 02:16:05;;;;;;;13.23;11.88;;;10.20;99.90;;;;;;5123711;27;20033;-79
2021/05/16 02:18:33;;;;;;;16.95;13.10;;;10.20;99.90;;;;;;5120529;27;20040;-80
2021/05/16 02:20:59;;;;;;;16.63;13.23;;;10.30;99.90;;;;;;5105534;27;20447;-79
2021/05/16 02:23:25;;;;;;;15.02;12.75;;;10.20;99.90;;;;;;5124136;27;20031;-80
2021/05/16 02:25:51;;;;;;;17.15;13.40;;;10.20;99.90;;;;;;5136738;27;20130;-82
2021/05/16 02:28:18;;;;;;;16.00;12.95;;;10.30;99.90;;;;;;5112412;27;20498;-81
2021/05/16 02:30:45;;;;;;;17.13;13.98;;;10.30;99.90;;;;;;5112962;27;20042;-82
2021/05/16 02:33:11;;;;;;;16.83;13.95;;;10.20;99.90;;;;;;5126680;27;20027;-81
2021/05/16 02:35:37;;;;;;;16.95;14.13;;;10.20;99.90;;;;;;5126632;27;20035;-82
2021/05/16 02:38:03;;;;;;;15.95;13.35;;;10.20;99.90;;;;;;5129568;27;20047;-79
2021/05/16 02:40:29;;;;;;;17.65;14.55;;;10.30;99.90;;;;;;5148076;27;20038;-82
2021/05/16 02:42:55;;;;;;;21.50;14.00;;;10.30;99.90;;;;;;5130692;27;20054;-80
2021/05/16 02:45:21;;;;;;;18.27;13.35;;;10.20;99.90;;;;;;5123536;27;20031;-79
2021/05/16 02:47:48;;;;;;;16.23;13.52;;;10.20;99.90;;;;;;5122164;27;20035;-80
2021/05/16 02:50:15;;;;;;;16.70;14.50;;;10.30;99.90;;;;;;5130987;27;20027;-79
2021/05/16 02:52:41;;;;;;;17.52;14.52;;;10.30;99.90;;;;;;5127954;27;20122;-82
2021/05/16 02:55:09;;;;;;;15.90;14.20;;;10.30;99.90;;;;;;5127048;27;20027;-82
2021/05/16 02:57:35;;;;;;;17.90;14.75;;;10.30;99.90;;;;;;5099930;27;20050;-80
2021/05/16 03:00:02;;;;;;;17.23;14.38;;;10.30;99.90;;;;;;5122997;27;20042;-82
2021/05/16 03:02:28;;;;;;;17.08;14.32;;;10.30;99.90;;;;;;5109811;27;20042;-81
2021/05/16 03:04:54;;;;;;;18.33;14.35;;;10.30;99.90;;;;;;5104721;27;20043;-80
2021/05/16 03:07:19;;;;;;;17.80;15.25;;;10.30;99.90;;;;;;5130044;27;20410;-82
2021/05/16 03:09:45;;;;;;;16.80;14.73;;;10.40;99.90;;;;;;5125993;27;20475;-82
2021/05/16 03:12:11;;;;;;;20.48;15.05;;;10.40;99.90;;;;;;5130178;27;20385;-80
2021/05/16 03:14:37;;;;;;;18.95;15.82;;;10.40;99.90;;;;;;5105613;28;20035;-81
2021/05/16 03:17:03;;;;;;;18.88;14.60;;;10.40;99.90;;;;;;5126821;27;20046;-81
2021/05/16 03:19:37;;;;;;;16.98;14.60;;;10.40;99.90;;;;;;5126889;27;20038;-82
2021/05/16 03:22:03;;;;;;;18.58;15.23;;;10.40;99.90;;;;;;5105396;27;20046;-80
2021/05/16 03:24:29;;;;;;;16.25;14.63;;;10.40;99.90;;;;;;5121036;27;20108;-81
2021/05/16 03:26:55;;;;;;;19.83;14.93;;;10.50;99.90;;;;;;5125693;27;20035;-79
2021/05/16 03:29:41;;;;;;;20.98;15.68;;;10.50;99.90;;;;;;5130771;27;20043;-79
2021/05/16 03:32:06;;;;;;;16.95;15.15;;;10.40;99.90;;;;;;5128805;27;20039;-80
2021/05/16 03:34:32;;;;;;;18.08;15.75;;;10.50;99.90;;;;;;5126646;27;20039;-83
2021/05/16 03:36:59;;;;;;;20.10;16.45;;;10.40;99.90;;;;;;5126712;27;20031;-79
2021/05/16 03:39:24;;;;;;;20.27;16.23;;;10.40;99.90;;;;;;5123695;27;20113;-80
2021/05/16 03:41:55;;;;;;;18.98;16.10;;;10.30;99.90;;;;;;5126870;27;20106;-80
2021/05/16 03:44:22;;;;;;;20.20;16.55;;;10.40;99.90;;;;;;5115811;27;20107;-80
2021/05/16 03:46:48;;;;;;;19.58;17.48;;;10.50;99.90;;;;;;5121819;27;20054;-80
2021/05/16 03:49:16;;;;;;;18.20;15.88;;;10.40;99.90;;;;;;5143120;27;20441;-79
2021/05/16 03:51:43;;;;;;;23.90;17.65;;;10.40;99.90;;;;;;5125777;27;20047;-82
2021/05/16 03:54:10;;;;;;;21.88;16.77;;;10.50;99.90;;;;;;5103588;27;20065;-80
2021/05/16 03:56:37;;;;;;;21.48;17.65;;;10.50;99.90;;;;;;5145076;27;20034;-80
2021/05/16 03:59:03;;;;;;;21.13;16.65;;;10.50;99.90;;;;;;5152932;27;20472;-80
2021/05/16 04:01:29;;;;;;;20.45;17.42;;;10.50;99.90;;;;;;5128585;27;20035;-79
2021/05/16 04:03:55;;;;;;;21.27;17.92;;;10.40;99.90;;;;;;5112996;27;20382;-80
2021/05/16 04:06:21;;;;;;;21.33;18.15;;;10.50;99.90;;;;;;5129633;27;20127;-81
2021/05/16 04:08:48;;;;;;;21.98;18.55;;;10.50;99.90;;;;;;5117913;27;20142;-80
2021/05/16 04:11:14;;;;;;;21.52;18.02;;;10.60;99.90;;;;;;5112331;27;20129;-80
2021/05/16 04:13:40;;;;;;;23.10;19.50;;;10.60;99.90;;;;;;5124722;27;20039;-82
2021/05/16 04:16:07;;;;;;;22.63;19.85;;;10.70;99.90;;;;;;5126773;27;20034;-80
2021/05/16 04:18:32;;;;;;;24.83;18.30;;;10.50;99.90;;;;;;5120789;27;20053;-80
2021/05/16 04:21:01;;;;;;;21.83;18.92;;;10.60;99.90;;;;;;5130868;27;20035;-80
2021/05/16 04:23:27;;;;;;;25.20;19.60;;;10.60;99.90;;;;;;5123282;27;20108;-81
2021/05/16 04:25:53;;;;;;;24.42;20.10;;;10.70;99.90;;;;;;5123937;27;20462;-81
2021/05/16 04:28:19;;;;;;;25.58;20.73;;;10.60;99.90;;;;;;5147239;27;20031;-82
2021/05/16 04:30:44;;;;;;;28.38;22.77;;;10.60;99.90;;;;;;5135498;27;20125;-82
2021/05/16 04:33:10;;;;;;;26.65;22.50;;;10.60;99.90;;;;;;5146383;27;20033;-80
2021/05/16 04:35:36;;;;;;;30.23;22.77;;;10.60;99.90;;;;;;5109089;27;20473;-81
2021/05/16 04:38:02;;;;;;;28.20;22.63;;;10.50;99.90;;;;;;5150245;27;20034;-81
2021/05/16 04:40:28;;;;;;;31.23;23.73;;;10.60;99.90;;;;;;5148158;27;20062;-80
2021/05/16 04:42:55;;;;;;;35.35;24.65;;;10.60;99.90;;;;;;5128426;27;20435;-80
2021/05/16 04:45:21;;;;;;;31.85;22.98;;;10.60;99.90;;;;;;5131030;27;20084;-81
2021/05/16 04:47:47;;;;;;;36.70;23.70;;;10.60;99.90;;;;;;5133960;27;20062;-82
2021/05/16 04:50:15;;;;;;;31.25;23.48;;;10.60;99.90;;;;;;5129199;27;20417;-82
2021/05/16 04:52:41;;;;;;;29.10;23.58;;;10.60;99.90;;;;;;5123480;27;20036;-82
2021/05/16 04:55:07;;;;;;;31.38;23.67;;;10.60;99.90;;;;;;5127300;27;20050;-81
2021/05/16 04:57:33;;;;;;;34.03;23.98;;;10.60;99.90;;;;;;5123848;27;20047;-80
2021/05/16 05:00:00;;;;;;;32.38;24.40;;;10.70;99.90;;;;;;5145915;27;20091;-81
2021/05/16 05:02:26;;;;;;;35.88;26.35;;;10.70;99.90;;;;;;5134519;27;20081;-80
2021/05/16 05:04:53;;;;;;;35.92;25.38;;;10.60;99.90;;;;;;5144990;27;20475;-81
2021/05/16 05:07:19;;;;;;;34.20;24.50;;;10.50;99.90;;;;;;5115806;27;20069;-80
2021/05/16 05:09:45;;;;;;;36.60;25.88;;;10.50;99.90;;;;;;5127976;27;20070;-80
2021/05/16 05:12:11;;;;;;;33.80;23.80;;;10.50;99.90;;;;;;5109791;27;20496;-80
2021/05/16 05:14:36;;;;;;;28.92;21.70;;;10.50;99.90;;;;;;5131541;27;20049;-79
2021/05/16 05:17:02;;;;;;;33.80;21.42;;;10.50;99.90;;;;;;5132673;27;20065;-81
2021/05/16 05:19:28;;;;;;;30.38;21.30;;;10.50;99.90;;;;;;5150044;27;20034;-80
2021/05/16 05:21:54;;;;;;;31.02;20.77;;;10.50;99.90;;;;;;5129130;27;20061;-81
2021/05/16 05:24:21;;;;;;;33.78;21.73;;;10.50;99.90;;;;;;5129173;27;20150;-80
2021/05/16 05:26:47;;;;;;;27.42;20.73;;;10.60;99.90;;;;;;5124974;27;20130;-80
2021/05/16 05:29:13;;;;;;;27.85;21.17;;;10.70;99.90;;;;;;5128201;27;20114;-81
2021/05/16 05:31:39;;;;;;;33.40;21.58;;;11.00;99.90;;;;;;5107061;27;20072;-81
2021/05/16 05:34:06;;;;;;;31.38;20.73;;;11.00;99.90;;;;;;5121804;27;20136;-82
2021/05/16 05:36:32;;;;;;;30.15;21.08;;;11.10;99.90;;;;;;5104405;27;20474;-81
2021/05/16 05:38:58;;;;;;;31.83;21.02;;;11.10;99.90;;;;;;5124628;27;20102;-80
2021/05/16 05:41:24;;;;;;;29.98;20.73;;;11.30;99.90;;;;;;5119780;27;20035;-81
2021/05/16 05:43:52;;;;;;;33.10;21.98;;;11.40;99.90;;;;;;5124647;27;20046;-81
2021/05/16 05:46:18;;;;;;;36.00;22.40;;;11.50;99.90;;;;;;5119347;27;20487;-81
2021/05/16 05:48:44;;;;;;;34.25;22.98;;;11.50;99.90;;;;;;5120656;27;20054;-81
2021/05/16 05:51:09;;;;;;;46.67;25.88;;;11.50;99.90;;;;;;5124569;27;20390;-80
2021/05/16 05:53:36;;;;;;;51.10;27.63;;;11.50;99.90;;;;;;5130095;27;20522;-81
2021/05/16 05:56:03;;;;;;;48.72;27.38;;;11.50;99.90;;;;;;5125177;27;20036;-81
2021/05/16 05:58:32;;;;;;;57.92;28.55;;;11.50;99.90;;;;;;5129650;27;20042;-80
2021/05/16 06:00:58;;;;;;;56.15;30.40;;;11.40;99.90;;;;;;5138775;27;20454;-79
2021/05/16 06:03:24;;;;;;;57.22;30.05;;;11.50;99.90;;;;;;5138943;27;20051;-79
2021/05/16 06:05:50;;;;;;;52.33;29.88;;;11.60;99.90;;;;;;5145679;27;20039;-78
2021/05/16 06:08:16;;;;;;;53.22;29.00;;;11.70;99.90;;;;;;5140674;27;20024;-79
2021/05/16 06:10:42;;;;;;;53.08;28.42;;;11.80;99.90;;;;;;5137482;27;20048;-77
2021/05/16 06:13:07;;;;;;;49.78;29.30;;;11.80;99.90;;;;;;5127257;27;20050;-78
2021/05/16 06:15:33;;;;;;;58.50;27.90;;;11.80;99.90;;;;;;5133172;27;20039;-79
2021/05/16 06:18:01;;;;;;;50.75;28.38;;;11.80;99.90;;;;;;5122129;27;20050;-79
2021/05/16 06:20:28;;;;;;;52.75;27.88;;;11.80;99.90;;;;;;5102916;27;20034;-80
2021/05/16 06:22:55;;;;;;;53.30;25.63;;;11.90;99.90;;;;;;5088056;27;20119;-79
2021/05/16 06:25:21;;;;;;;45.17;25.80;;;12.00;99.90;;;;;;5102629;27;20498;-79
2021/05/16 06:27:47;;;;;;;51.38;26.80;;;12.00;99.90;;;;;;5124923;27;20057;-80
2021/05/16 06:30:16;;;;;;;44.08;21.85;;;12.00;99.90;;;;;;5104711;27;20027;-79
2021/05/16 06:32:42;;;;;;;37.05;20.65;;;12.00;99.90;;;;;;5102220;28;20078;-79
2021/05/16 06:35:10;;;;;;;39.67;22.80;;;11.80;99.90;;;;;;5108010;27;20493;-79
2021/05/16 06:37:35;;;;;;;40.75;22.45;;;11.80;99.90;;;;;;5096471;28;20043;-80
2021/05/16 06:40:02;;;;;;;38.17;21.73;;;11.80;99.90;;;;;;5096292;28;20094;-79
2021/05/16 06:42:28;;;;;;;35.17;20.45;;;11.70;99.90;;;;;;5127085;27;20471;-79
2021/05/16 06:44:54;;;;;;;30.50;19.77;;;11.60;99.90;;;;;;5123992;27;20559;-79
2021/05/16 06:47:20;;;;;;;35.28;19.95;;;11.60;99.90;;;;;;5126558;27;20134;-78
2021/05/16 06:49:53;;;;;;;33.83;20.02;;;11.60;99.90;;;;;;5127689;27;20027;-80
2021/05/16 06:52:20;;;;;;;30.02;19.95;;;11.70;99.90;;;;;;5111660;27;20053;-80
2021/05/16 06:54:48;;;;;;;36.03;21.50;;;11.80;99.90;;;;;;5094654;28;20138;-78
2021/05/16 06:57:15;;;;;;;27.90;20.27;;;12.10;99.90;;;;;;5113625;27;20075;-80
2021/05/16 06:59:41;;;;;;;33.10;20.33;;;12.30;99.90;;;;;;5113225;27;20031;-79
2021/05/16 07:02:07;;;;;;;34.58;20.70;;;12.40;99.90;;;;;;5124566;27;20035;-79
2021/05/16 07:04:33;;;;;;;29.85;20.45;;;12.60;99.90;;;;;;5093324;28;20386;-78
2021/05/16 07:06:59;;;;;;;31.27;19.15;;;12.60;99.90;;;;;;5128403;27;20036;-79
2021/05/16 07:09:25;;;;;;;30.58;18.92;;;12.70;99.90;;;;;;5110185;28;20047;-77
2021/05/16 07:11:51;;;;;;;26.27;17.75;;;12.80;99.90;;;;;;5128424;27;20042;-77
2021/05/16 07:14:17;;;;;;;26.38;16.98;;;12.70;99.90;;;;;;5114137;27;20102;-77
2021/05/16 07:16:45;;;;;;;27.38;16.35;;;12.70;99.90;;;;;;5117721;27;20027;-77
2021/05/16 07:19:11;;;;;;;26.92;16.65;;;12.80;99.90;;;;;;5077482;28;20355;-78
2021/05/16 07:21:36;;;;;;;29.10;16.52;;;12.70;99.90;;;;;;5119746;28;20039;-77
2021/05/16 07:24:04;;;;;;;24.95;15.80;;;12.60;99.90;;;;;;5094799;28;20126;-77
2021/05/16 07:26:30;;;;;;;24.02;16.17;;;12.60;99.90;;;;;;5104781;28;20051;-78
2021/05/16 07:28:56;;;;;;;23.23;14.88;;;12.70;99.90;;;;;;5102503;28;20122;-75
2021/05/16 07:31:22;;;;;;;26.50;15.38;;;12.80;99.90;;;;;;5112743;27;20035;-75
2021/05/16 07:33:47;;;;;;;29.00;15.65;;;12.80;99.90;;;;;;5115918;27;20047;-77
2021/05/16 07:36:13;;;;;;;27.02;15.02;;;13.10;99.90;;;;;;5128899;27;20040;-77
2021/05/16 07:39:00;;;;;;;23.40;14.55;;;13.30;99.90;;;;;;5091416;27;20071;-78
2021/05/16 07:41:26;;;;;;;20.35;13.05;;;13.50;99.90;;;;;;5112767;27;20027;-78
2021/05/16 07:43:52;;;;;;;21.20;12.00;;;13.60;99.90;;;;;;5097907;28;20066;-78
2021/05/16 07:46:17;;;;;;;20.83;11.77;;;13.60;99.90;;;;;;5104432;27;20084;-79
2021/05/16 07:48:44;;;;;;;20.27;13.02;;;13.90;99.90;;;;;;5117702;27;20135;-80
2021/05/16 07:51:11;;;;;;;19.73;11.82;;;14.00;99.90;;;;;;5122145;27;20489;-79
2021/05/16 07:53:37;;;;;;;20.30;10.70;;;14.10;99.90;;;;;;5135157;27;20059;-78
2021/05/16 07:56:04;;;;;;;18.42;11.25;;;14.10;99.90;;;;;;5109566;27;20044;-80
2021/05/16 07:58:30;;;;;;;17.08;10.75;;;14.10;99.90;;;;;;5104613;28;20043;-79
2021/05/16 08:00:56;;;;;;;19.67;10.43;;;14.10;99.90;;;;;;5121338;27;20091;-76
2021/05/16 08:03:22;;;;;;;18.52;10.40;;;14.20;99.90;;;;;;5115569;27;20408;-77
2021/05/16 08:05:48;;;;;;;17.15;8.95;;;14.10;99.90;;;;;;5099859;27;20470;-78
2021/05/16 08:08:13;;;;;;;19.27;9.32;;;14.10;99.90;;;;;;5119591;27;20482;-77
2021/05/16 08:10:40;;;;;;;16.73;9.50;;;14.10;99.90;;;;;;5113733;27;20039;-80
2021/05/16 08:13:06;;;;;;;18.10;9.40;;;14.10;99.90;;;;;;5135175;27;20027;-80
2021/05/16 08:15:33;;;;;;;14.13;8.50;;;14.10;99.90;;;;;;5111135;27;20047;-80
2021/05/16 08:18:00;;;;;;;17.83;10.32;;;13.90;99.90;;;;;;5100775;27;20046;-78
2021/05/16 08:20:26;;;;;;;9.38;3.97;;;13.70;99.90;;;;;;5115138;27;20039;-77
2021/05/16 08:22:52;;;;;;;7.25;3.35;;;13.30;99.90;;;;;;5112917;27;20494;-80
2021/05/16 08:25:19;;;;;;;4.43;1.77;;;13.00;99.90;;;;;;5123618;27;20059;-80
2021/05/16 08:27:45;;;;;;;4.43;1.58;;;12.90;99.90;;;;;;5115113;28;20032;-80
2021/05/16 08:30:12;;;;;;;3.33;1.40;;;12.70;99.90;;;;;;5099433;27;20043;-80
2021/05/16 08:32:37;;;;;;;3.83;1.48;;;12.40;99.90;;;;;;5083245;27;20376;-78
2021/05/16 08:35:04;;;;;;;2.70;1.50;;;12.40;99.90;;;;;;5114714;27;20085;-76
2021/05/16 08:37:30;;;;;;;6.18;2.10;;;12.10;99.90;;;;;;5105023;27;20035;-77
2021/05/16 08:39:55;;;;;;;7.32;2.45;;;12.10;99.90;;;;;;5110637;27;20070;-78
2021/05/16 08:42:21;;;;;;;6.10;2.78;;;12.10;99.90;;;;;;5114584;27;20086;-82
2021/05/16 08:44:47;;;;;;;6.85;3.67;;;12.00;99.90;;;;;;5105849;27;20042;-78
2021/05/16 08:47:14;;;;;;;6.38;2.90;;;12.20;99.90;;;;;;5108863;28;20044;-78
2021/05/16 08:49:41;;;;;;;4.65;2.33;;;12.40;99.90;;;;;;5105963;27;20114;-77
2021/05/16 08:52:06;;;;;;;6.25;2.60;;;12.50;99.90;;;;;;5126426;27;20034;-77
2021/05/16 08:54:32;;;;;;;6.38;3.03;;;12.70;99.90;;;;;;5086073;28;20044;-77
2021/05/16 08:56:59;;;;;;;8.13;2.95;;;12.80;99.90;;;;;;5109786;27;20035;-78
2021/05/16 08:59:25;;;;;;;5.30;2.92;;;13.00;99.90;;;;;;5109494;27;20487;-77
2021/05/16 09:01:59;;;;;;;5.60;2.78;;;13.10;99.90;;;;;;5083054;27;20502;-77
2021/05/16 09:04:35;;;;;;;6.65;2.78;;;13.20;99.90;;;;;;5115413;27;20111;-76
2021/05/16 09:07:02;;;;;;;4.97;2.47;;;13.30;99.90;;;;;;5121066;27;20084;-79
2021/05/16 09:09:31;;;;;;;4.75;2.25;;;13.40;99.90;;;;;;5097971;27;20151;-78
2021/05/16 09:12:05;;;;;;;5.20;2.20;;;13.40;99.90;;;;;;5093800;27;20138;-77
2021/05/16 09:14:50;;;;;;;4.63;2.08;;;13.70;99.90;;;;;;5134377;27;20042;-79
2021/05/16 09:17:36;;;;;;;6.97;1.95;;;14.00;99.90;;;;;;5128620;27;20051;-79
2021/05/16 09:20:02;;;;;;;5.22;1.73;;;14.00;99.90;;;;;;5118062;27;20555;-78
2021/05/16 09:22:40;;;;;;;4.13;2.00;;;13.80;99.90;;;;;;5083580;27;20044;-77
2021/05/16 09:25:13;;;;;;;4.55;1.75;;;13.80;99.90;;;;;;5103150;28;20047;-77
2021/05/16 09:27:41;;;;;;;3.30;1.20;;;13.80;99.90;;;;;;5104777;27;20415;-77
2021/05/16 09:30:24;;;;;;;3.80;1.75;;;13.70;99.90;;;;;;5099901;27;20031;-77
2021/05/16 09:32:56;;;;;;;3.85;1.80;;;13.80;99.90;;;;;;5120394;27;20032;-77
2021/05/16 09:35:42;;;;;;;4.75;1.85;;;13.90;99.90;;;;;;5121400;27;20506;-78
2021/05/16 09:38:21;;;;;;;4.88;2.20;;;13.90;99.90;;;;;;5123353;27;20160;-78
2021/05/16 09:40:52;;;;;;;5.32;2.55;;;14.00;99.90;;;;;;5133337;27;20028;-78
2021/05/16 09:43:20;;;;;;;5.85;2.80;;;13.90;99.90;;;;;;5128243;27;20493;-78
2021/05/16 09:46:02;;;;;;;7.22;3.17;;;14.00;99.90;;;;;;5114261;27;20037;-79
2021/05/16 09:48:42;;;;;;;6.93;3.40;;;13.80;99.90;;;;;;5122658;27;20060;-79
2021/05/16 09:51:26;;;;;;;8.25;3.53;;;13.70;99.90;;;;;;5081742;28;20040;-79
2021/05/16 09:53:57;;;;;;;8.20;4.03;;;13.80;99.90;;;;;;5114389;27;20039;-80
2021/05/16 09:56:33;;;;;;;12.00;4.40;;;13.80;99.90;;;;;;5128454;27;20035;-77
2021/05/16 09:59:02;;;;;;;10.35;4.40;;;13.60;99.90;;;;;;5095740;28;20437;-79
2021/05/16 10:01:28;;;;;;;8.40;4.30;;;13.60;99.90;;;;;;5113105;28;20039;-78
2021/05/16 10:03:56;;;;;;;9.77;4.60;;;13.70;99.90;;;;;;5101338;28;20042;-78
2021/05/16 10:06:23;;;;;;;8.50;4.28;;;14.10;99.90;;;;;;5128079;27;20047;-80
2021/05/16 10:08:49;;;;;;;8.40;4.20;;;14.20;99.90;;;;;;5134261;27;20031;-80
2021/05/16 10:11:21;;;;;;;5.97;3.78;;;14.60;99.90;;;;;;5099084;27;20042;-77
2021/05/16 10:14:00;;;;;;;10.10;3.97;;;14.50;99.90;;;;;;5099307;27;20430;-79
2021/05/16 10:16:30;;;;;;;7.95;4.22;;;14.50;99.90;;;;;;5113266;27;20352;-78
2021/05/16 10:18:56;;;;;;;8.45;4.20;;;14.50;99.90;;;;;;5098747;27;20158;-78
2021/05/16 10:21:24;;;;;;;8.50;4.35;;;14.60;99.90;;;;;;5133940;27;20101;-77
2021/05/16 10:24:06;;;;;;;8.20;3.70;;;15.20;99.90;;;;;;5115905;27;20047;-79
2021/05/16 10:26:32;;;;;;;4.53;2.75;;;15.20;99.90;;;;;;5108447;28;20055;-79
2021/05/16 10:29:10;;;;;;;5.40;2.90;;;15.20;99.90;;;;;;5113928;27;20485;-79
2021/05/16 10:31:55;;;;;;;4.00;2.63;;;15.20;99.90;;;;;;5093214;28;20071;-77
2021/05/16 10:34:23;;;;;;;3.50;1.88;;;15.40;99.90;;;;;;5112927;28;20051;-77
2021/05/16 10:36:49;;;;;;;5.20;2.20;;;15.40;99.90;;;;;;5099489;27;20051;-77
2021/05/16 10:39:43;;;;;;;3.63;2.22;;;15.50;99.90;;;;;;5115662;27;20042;-79
2021/05/16 10:42:33;;;;;;;3.05;1.70;;;15.80;99.90;;;;;;5133490;27;20035;-79
2021/05/16 10:45:08;;;;;;;5.45;2.28;;;15.50;99.90;;;;;;5111060;27;20055;-79
2021/05/16 10:50:08;;;;;;;;;;;15.50;99.90;;;;;;5113424;28;20114;-77
2021/05/16 10:52:34;;;;;;;5.20;2.88;;;15.40;99.90;;;;;;5129913;27;20375;-78
2021/05/16 10:55:00;;;;;;;6.13;3.22;;;15.50;99.90;;;;;;5133252;27;20086;-77
2021/05/16 10:57:38;;;;;;;5.70;2.45;;;15.40;99.90;;;;;;5112954;27;20134;-78
2021/05/16 11:00:24;;;;;;;5.53;2.85;;;15.50;99.90;;;;;;5133008;27;20087;-78
2021/05/16 11:03:08;;;;;;;5.22;2.38;;;15.50;99.90;;;;;;5114893;27;20122;-77
2021/05/16 11:05:53;;;;;;;5.65;1.88;;;15.20;99.90;;;;;;5130646;27;20495;-79
2021/05/16 11:08:19;;;;;;;3.95;1.80;;;14.90;99.90;;;;;;5129209;27;20482;-77
2021/05/16 11:10:47;;;;;;;3.22;1.98;;;15.00;99.90;;;;;;5112481;27;20042;-77
2021/05/16 11:13:15;;;;;;;4.47;2.42;;;14.90;99.90;;;;;;5113691;28;20035;-77
2021/05/16 11:16:04;;;;;;;4.07;2.20;;;14.80;99.90;;;;;;5094287;28;20537;-79
2021/05/16 11:18:30;;;;;;;4.88;2.60;;;14.70;99.90;;;;;;5106533;27;20183;-78
2021/05/16 11:21:01;;;;;;;4.18;2.30;;;14.90;99.90;;;;;;5111129;28;20420;-76
2021/05/16 11:23:34;;;;;;;6.28;2.58;;;15.20;99.90;;;;;;5113468;28;20055;-77
2021/05/16 11:26:09;;;;;;;4.35;2.38;;;15.70;99.90;;;;;;5131136;28;20047;-80
2021/05/16 11:28:43;;;;;;;6.10;2.40;;;15.70;99.90;;;;;;5132157;28;20118;-77
2021/05/16 11:31:10;;;;;;;;;;;15.50;99.90;;;;;;5112918;28;20505;-79
2021/05/16 11:33:38;;;;;;;12.55;4.43;;;15.10;99.90;;;;;;5097926;28;20286;-78
2021/05/16 11:36:09;;;;;;;7.97;4.15;;;14.30;99.90;;;;;;5105401;28;20043;-80
2021/05/16 11:38:38;;;;;;;7.75;4.57;;;14.10;99.90;;;;;;5120046;28;20043;-76
2021/05/16 11:41:04;;;;;;;10.30;3.80;;;13.70;99.90;;;;;;5098618;28;20100;-76
2021/05/16 11:43:32;;;;;;;7.00;3.47;;;13.30;99.90;;;;;;5117032;28;20062;-78
2021/05/16 11:45:59;;;;;;;6.78;3.03;;;13.00;99.90;;;;;;5119708;27;20445;-79
2021/05/16 11:48:31;;;;;;;6.45;2.10;;;12.90;99.90;;;;;;5127802;27;20524;-79
2021/05/16 11:51:06;;;;;;;5.38;1.90;;;12.90;99.90;;;;;;5115919;28;20429;-79
2021/05/16 11:53:32;;;;;;;;;;;13.00;99.90;;;;;;5112788;28;20589;-79
2021/05/16 11:56:03;;;;;;;5.95;2.20;;;12.90;99.90;;;;;;5098626;28;19963;-80
2021/05/16 11:58:30;;;;;;;5.85;2.10;;;12.90;99.90;;;;;;5119862;28;20089;-80
2021/05/16 12:00:57;;;;;;;7.68;2.33;;;12.90;99.90;;;;;;5125643;27;20063;-79
2021/05/16 12:03:23;;;;;;;5.15;2.20;;;12.90;99.90;;;;;;5106606;28;20089;-80
2021/05/16 12:05:49;;;;;;;6.75;2.20;;;12.90;99.90;;;;;;5126484;28;20035;-80
2021/05/16 12:08:23;;;;;;;3.97;1.73;;;13.00;99.90;;;;;;5084363;28;20463;-80
2021/05/16 12:11:08;;;;;;;5.35;1.45;;;13.50;99.90;;;;;;5102530;28;20043;-80
2021/05/16 12:13:34;;;;;;;4.65;2.20;;;13.80;99.90;;;;;;5121876;28;20035;-80
2021/05/16 12:16:36;;;;;;;4.90;2.25;;;13.90;99.90;;;;;;5104651;28;20115;-79
2021/05/16 12:19:03;;;;;;;4.97;1.95;;;14.00;99.90;;;;;;5030137;28;20081;-79
2021/05/16 12:21:30;;;;;;;5.28;2.00;;;14.00;99.90;;;;;;5031111;28;20117;-80
2021/05/16 12:24:09;;;;;;;4.78;2.03;;;13.90;99.90;;;;;;5037769;28;20049;-80
2021/05/16 12:26:37;;;;;;;7.28;2.22;;;14.20;99.90;;;;;;5042201;28;20054;-79
2021/05/16 12:29:04;;;;;;;5.15;1.67;;;14.40;99.90;;;;;;5023225;28;20076;-78
2021/05/16 12:31:32;;;;;;;4.28;1.80;;;14.80;99.90;;;;;;5023567;28;20057;-78
2021/05/16 12:34:06;;;;;;;4.63;1.83;;;15.20;99.90;;;;;;5028636;28;20057;-79
2021/05/16 12:36:51;;;;;;;3.17;2.17;;;15.50;99.90;;;;;;5047125;28;20488;-78
2021/05/16 12:39:37;;;;;;;4.85;1.92;;;15.20;99.90;;;;;;5035867;28;20045;-79
2021/05/16 12:42:21;;;;;;;5.78;2.10;;;15.50;99.90;;;;;;5034633;28;20050;-79
2021/05/16 12:44:48;;;;;;;4.38;1.50;;;15.50;99.90;;;;;;5035481;28;20038;-80